createdAt,value
2018-04-10T00:02:19.960Z,10.75
2018-04-10T00:05:23.260Z,10.77
2018-04-10T00:08:26.576Z,10.69
2018-04-10T00:11:29.881Z,10.67
2018-04-10T00:14:33.968Z,10.64
2018-04-10T00:17:37.288Z,10.62
2018-04-10T00:20:40.606Z,10.63
2018-04-10T00:23:43.932Z,10.61
2018-04-10T00:26:47.248Z,10.53
2018-04-10T00:29:50.560Z,10.48
2018-04-10T00:32:53.861Z,10.45
2018-04-10T00:35:57.184Z,10.41
2018-04-10T00:39:01.289Z,10.37
2018-04-10T00:42:05.357Z,10.32
2018-04-10T00:45:08.680Z,10.24
2018-04-10T00:48:11.984Z,10.18
2018-04-10T00:51:16.077Z,10.18
2018-04-10T00:54:19.384Z,10.12
2018-04-10T00:57:22.712Z,10.11
2018-04-10T01:00:26.781Z,10.05
2018-04-10T01:03:30.101Z,10.02
2018-04-10T01:06:33.421Z,10.02
2018-04-10T01:09:37.484Z,9.96
2018-04-10T01:12:40.800Z,9.90
2018-04-10T01:15:44.107Z,9.90
2018-04-10T01:18:47.415Z,9.89
2018-04-10T01:21:51.497Z,9.90
2018-04-10T01:24:54.793Z,9.90
2018-04-10T01:27:58.108Z,9.91
2018-04-10T01:31:01.430Z,9.92
2018-04-10T01:34:05.512Z,9.88
2018-04-10T01:37:08.832Z,9.82
2018-04-10T01:40:12.895Z,9.80
2018-04-10T01:43:16.212Z,9.77
2018-04-10T01:46:19.511Z,9.75
2018-04-10T01:49:22.834Z,9.76
2018-04-10T01:52:26.898Z,9.73
2018-04-10T01:55:30.223Z,9.69
2018-04-10T01:58:33.512Z,9.69
2018-04-10T02:01:36.832Z,9.66
2018-04-10T02:04:40.901Z,9.62
2018-04-10T02:07:44.224Z,9.60
2018-04-10T02:10:47.516Z,9.59
2018-04-10T02:13:50.833Z,9.59
2018-04-10T02:16:54.932Z,9.58
2018-04-10T02:19:58.241Z,9.52
2018-04-10T02:23:01.557Z,9.48
2018-04-10T02:26:05.636Z,9.48
2018-04-10T02:29:08.958Z,9.48
2018-04-10T02:32:13.024Z,9.47
2018-04-10T02:35:16.336Z,9.47
2018-04-10T02:38:19.644Z,9.46
2018-04-10T02:41:22.973Z,9.47
2018-04-10T02:44:27.038Z,9.44
2018-04-10T02:47:30.364Z,9.44
2018-04-10T02:50:33.669Z,9.46
2018-04-10T02:53:37.764Z,9.36
2018-04-10T02:56:41.066Z,9.36
2018-04-10T02:59:44.380Z,9.36
2018-04-10T03:02:48.448Z,9.37
2018-04-10T03:05:51.771Z,9.34
2018-04-10T03:08:55.097Z,9.32
2018-04-10T03:11:59.212Z,9.30
2018-04-10T03:15:02.518Z,9.32
2018-04-10T03:18:05.840Z,9.35
2018-04-10T03:21:09.174Z,9.34
2018-04-10T03:24:12.480Z,9.32
2018-04-10T03:27:16.582Z,9.30
2018-04-10T03:30:19.884Z,9.31
2018-04-10T03:33:23.221Z,9.33
2018-04-10T03:36:26.527Z,9.32
2018-04-10T03:39:29.848Z,9.36
2018-04-10T03:42:33.144Z,9.36
2018-04-10T03:45:36.455Z,9.39
2018-04-10T03:48:39.777Z,9.44
2018-04-10T03:51:43.850Z,9.47
2018-04-10T03:54:47.168Z,9.49
2018-04-10T03:57:50.469Z,9.40
2018-04-10T04:00:53.784Z,9.35
2018-04-10T04:03:57.863Z,9.36
2018-04-10T04:07:01.177Z,9.33
2018-04-10T04:10:04.498Z,9.32
2018-04-10T04:13:08.580Z,9.29
2018-04-10T04:16:29.660Z,9.27
2018-04-10T04:19:50.436Z,9.28
2018-04-10T04:22:53.773Z,9.27
2018-04-10T04:25:57.912Z,9.20
2018-04-10T04:29:01.234Z,9.23
2018-04-10T04:32:05.317Z,9.21
2018-04-10T04:35:08.632Z,9.22
2018-04-10T04:38:11.944Z,9.20
2018-04-10T04:41:16.003Z,9.16
2018-04-10T04:44:19.324Z,9.14
2018-04-10T04:47:22.648Z,9.08
2018-04-10T04:50:26.753Z,9.06
2018-04-10T04:53:30.840Z,8.95
2018-04-10T04:56:34.160Z,8.94
2018-04-10T04:59:37.477Z,8.95
2018-04-10T05:02:41.560Z,8.93
2018-04-10T05:05:44.866Z,8.90
2018-04-10T05:08:48.187Z,8.84
2018-04-10T05:11:51.488Z,8.85
2018-04-10T05:14:54.808Z,8.81
2018-04-10T05:17:58.111Z,8.82
2018-04-10T05:21:01.425Z,8.87
2018-04-10T05:24:04.749Z,8.79
2018-04-10T05:27:08.812Z,8.79
2018-04-10T05:30:12.128Z,8.74
2018-04-10T05:33:15.429Z,8.78
2018-04-10T05:36:18.768Z,8.80
2018-04-10T05:39:22.836Z,8.80
2018-04-10T05:42:26.165Z,8.81
2018-04-10T05:45:30.229Z,8.90
2018-04-10T05:48:33.547Z,8.93
2018-04-10T05:51:36.848Z,8.96
2018-04-10T05:54:40.177Z,9.00
2018-04-10T05:57:44.244Z,9.06
2018-04-10T06:00:47.617Z,9.13
2018-04-10T06:03:50.912Z,9.20
2018-04-10T06:06:54.233Z,9.27
2018-04-10T06:09:57.557Z,9.40
2018-04-10T06:13:00.865Z,9.42
2018-04-10T06:16:04.969Z,9.51
2018-04-10T06:19:08.272Z,9.60
2018-04-10T06:22:11.590Z,9.70
2018-04-10T06:25:14.923Z,9.78
2018-04-10T06:28:18.221Z,9.88
2018-04-10T06:31:21.539Z,9.99
2018-04-10T06:34:24.836Z,10.07
2018-04-10T06:37:28.194Z,10.15
2018-04-10T06:40:32.245Z,10.29
2018-04-10T06:43:35.569Z,10.36
2018-04-10T06:46:39.680Z,10.45
2018-04-10T06:49:42.980Z,10.57
2018-04-10T06:52:47.061Z,10.65
2018-04-10T06:55:50.361Z,10.74
2018-04-10T06:58:53.685Z,10.81
2018-04-10T07:01:57.780Z,10.88
2018-04-10T07:05:01.080Z,10.92
2018-04-10T07:08:04.400Z,10.94
2018-04-10T07:11:08.491Z,10.97
2018-04-10T07:14:11.817Z,11.03
2018-04-10T07:17:15.885Z,11.00
2018-04-10T07:20:19.214Z,11.08
2018-04-10T07:23:22.533Z,11.09
2018-04-10T07:26:25.856Z,11.15
2018-04-10T07:29:29.169Z,11.20
2018-04-10T07:32:32.506Z,11.31
2018-04-10T07:35:36.581Z,11.27
2018-04-10T07:38:39.929Z,11.21
2018-04-10T07:41:43.235Z,11.19
2018-04-10T07:44:46.580Z,11.18
2018-04-10T07:47:49.890Z,11.18
2018-04-10T07:50:53.216Z,11.20
2018-04-10T07:53:57.294Z,11.31
2018-04-10T07:57:00.632Z,11.31
2018-04-10T08:00:03.949Z,11.39
2018-04-10T08:03:07.272Z,11.37
2018-04-10T08:06:10.601Z,11.33
2018-04-10T08:09:14.681Z,11.29
2018-04-10T08:12:18.008Z,11.38
2018-04-10T08:15:21.336Z,11.42
2018-04-10T08:18:24.660Z,11.40
2018-04-10T08:21:27.984Z,11.47
2018-04-10T08:24:31.294Z,11.54
2018-04-10T08:27:34.623Z,11.58
2018-04-10T08:30:37.932Z,11.65
2018-04-10T08:33:41.265Z,11.68
2018-04-10T08:36:44.577Z,11.65
2018-04-10T08:39:47.909Z,11.70
2018-04-10T08:42:51.221Z,11.80
2018-04-10T08:45:54.552Z,11.83
2018-04-10T08:48:57.864Z,11.94
2018-04-10T08:52:01.188Z,12.08
2018-04-10T08:55:04.518Z,12.26
2018-04-10T08:58:07.849Z,12.38
2018-04-10T09:01:11.177Z,12.46
2018-04-10T09:04:14.493Z,12.44
2018-04-10T09:07:17.837Z,12.45
2018-04-10T09:10:21.159Z,12.40
2018-04-10T09:13:24.488Z,12.37
2018-04-10T09:16:27.801Z,12.32
2018-04-10T09:19:31.138Z,12.20
2018-04-10T09:22:35.212Z,12.06
2018-04-10T09:25:38.553Z,12.01
2018-04-10T09:28:42.624Z,11.99
2018-04-10T09:31:45.953Z,11.91
2018-04-10T09:34:49.256Z,11.80
2018-04-10T09:37:53.345Z,11.64
2018-04-10T09:40:56.656Z,11.61
2018-04-10T09:43:59.984Z,11.56
2018-04-10T09:47:03.312Z,11.45
2018-04-10T09:50:06.640Z,11.28
2018-04-10T09:53:09.969Z,11.09
2018-04-10T09:56:14.033Z,10.93
2018-04-10T09:59:17.344Z,10.72
2018-04-10T10:02:21.610Z,10.57
2018-04-10T10:05:24.940Z,10.54
2018-04-10T10:08:28.263Z,10.24
2018-04-10T10:11:31.560Z,10.02
2018-04-10T10:14:34.878Z,9.79
2018-04-10T10:17:38.957Z,9.67
2018-04-10T10:20:42.270Z,9.64
2018-04-10T10:23:45.586Z,9.73
2018-04-10T10:26:49.645Z,9.65
2018-04-10T10:29:53.728Z,9.64
2018-04-10T10:32:57.073Z,9.63
2018-04-10T10:36:00.371Z,9.56
2018-04-10T10:39:03.677Z,9.52
2018-04-10T10:42:07.001Z,9.54
2018-04-10T10:45:11.065Z,9.68
2018-04-10T10:48:14.393Z,9.68
2018-04-10T10:51:17.688Z,9.54
2018-04-10T10:54:21.005Z,9.34
2018-04-10T10:57:25.081Z,9.27
2018-04-10T11:00:28.392Z,9.20
2018-04-10T11:03:31.718Z,9.21
2018-04-10T11:06:35.012Z,9.22
2018-04-10T11:09:39.141Z,9.14
2018-04-10T11:12:42.436Z,9.27
2018-04-10T11:15:45.732Z,9.45
2018-04-10T11:18:49.053Z,9.44
2018-04-10T11:21:52.368Z,9.39
2018-04-10T11:24:55.733Z,9.37
2018-04-10T11:27:59.028Z,9.41
2018-04-10T11:31:02.352Z,9.45
2018-04-10T11:34:05.672Z,9.50
2018-04-10T11:37:08.974Z,9.46
2018-04-10T11:40:12.293Z,9.43
2018-04-10T11:43:16.381Z,9.48
2018-04-10T11:46:19.724Z,9.47
2018-04-10T11:49:23.024Z,9.41
2018-04-10T11:52:26.345Z,9.47
2018-04-10T11:55:29.656Z,9.58
2018-04-10T11:58:32.976Z,9.60
2018-04-10T12:01:37.051Z,9.64
2018-04-10T12:04:40.372Z,9.72
2018-04-10T12:07:43.679Z,9.68
2018-04-10T12:10:46.997Z,9.66
2018-04-10T12:13:51.085Z,9.66
2018-04-10T12:16:54.396Z,9.60
2018-04-10T12:19:58.480Z,9.67
2018-04-10T12:23:01.797Z,9.64
2018-04-10T12:26:05.119Z,9.63
2018-04-10T12:29:08.421Z,9.56
2018-04-10T12:32:11.756Z,9.59
2018-04-10T12:35:15.056Z,9.48
2018-04-10T12:38:18.392Z,9.32
2018-04-10T12:41:21.688Z,9.24
2018-04-10T12:44:25.768Z,9.29
2018-04-10T12:47:29.068Z,9.29
2018-04-10T12:50:32.392Z,9.24
2018-04-10T12:53:36.460Z,9.22
2018-04-10T12:56:39.788Z,9.30
2018-04-10T12:59:43.085Z,9.37
2018-04-10T13:02:46.409Z,9.34
2018-04-10T13:05:49.708Z,9.47
2018-04-10T13:08:53.028Z,9.55
2018-04-10T13:11:56.324Z,9.44
2018-04-10T13:14:59.664Z,9.42
2018-04-10T13:18:02.964Z,9.25
2018-04-10T13:21:06.301Z,9.13
2018-04-10T13:24:09.606Z,9.14
2018-04-10T13:27:12.934Z,9.05
2018-04-10T13:30:16.247Z,9.07
2018-04-10T13:33:20.187Z,8.92
2018-04-10T13:36:24.262Z,8.91
2018-04-10T13:39:27.588Z,8.89
2018-04-10T13:42:31.657Z,8.90
2018-04-10T13:45:34.980Z,8.83
2018-04-10T13:48:38.305Z,8.73
2018-04-10T13:51:42.388Z,8.68
2018-04-10T13:54:45.708Z,8.63
2018-04-10T13:57:49.049Z,8.54
2018-04-10T14:00:52.397Z,8.53
2018-04-10T14:03:56.464Z,8.60
2018-04-10T14:06:59.784Z,8.61
2018-04-10T14:10:03.085Z,8.65
2018-04-10T14:13:06.410Z,8.76
2018-04-10T14:16:10.480Z,8.75
2018-04-10T14:19:13.802Z,8.71
2018-04-10T14:22:17.130Z,8.67
2018-04-10T14:25:20.449Z,8.60
2018-04-10T14:28:23.746Z,8.59
2018-04-10T14:31:27.065Z,8.57
2018-04-10T14:34:30.396Z,8.49
2018-04-10T14:37:34.460Z,8.42
2018-04-10T14:40:37.777Z,8.36
2018-04-10T14:43:41.077Z,8.22
2018-04-10T14:46:44.392Z,8.02
2018-04-10T14:49:47.699Z,8.08
2018-04-10T14:52:51.784Z,8.19
2018-04-10T14:55:55.104Z,8.22
2018-04-10T14:58:58.424Z,8.12
2018-04-10T15:02:01.725Z,8.07
2018-04-10T15:05:05.047Z,8.09
2018-04-10T15:08:08.377Z,8.05
2018-04-10T15:11:11.686Z,8.05
2018-04-10T15:14:15.773Z,8.05
2018-04-10T15:17:19.072Z,8.16
2018-04-10T15:20:22.388Z,8.17
2018-04-10T15:23:25.705Z,8.10
2018-04-10T15:26:29.801Z,8.12
2018-04-10T15:29:33.141Z,8.18
2018-04-10T15:32:36.449Z,8.24
2018-04-10T15:35:39.781Z,8.24
2018-04-10T15:38:43.082Z,8.26
2018-04-10T15:41:46.412Z,8.18
2018-04-10T15:44:49.716Z,8.22
2018-04-10T15:47:53.758Z,8.28
2018-04-10T15:50:57.060Z,8.25
2018-04-10T15:54:00.391Z,8.22
2018-04-10T15:57:04.462Z,8.27
2018-04-10T16:00:07.788Z,8.35
2018-04-10T16:03:11.128Z,8.28
2018-04-10T16:06:14.433Z,8.33
2018-04-10T16:09:17.773Z,8.34
2018-04-10T16:12:21.076Z,8.38
2018-04-10T16:15:24.398Z,8.44
2018-04-10T16:18:27.700Z,8.40
2018-04-10T16:21:31.021Z,8.34
2018-04-10T16:24:34.345Z,8.24
2018-04-10T16:27:37.685Z,8.20
2018-04-10T16:30:41.760Z,8.20
2018-04-10T16:33:45.076Z,8.25
2018-04-10T16:36:49.304Z,8.20
2018-04-10T16:39:52.679Z,8.17
2018-04-10T16:42:56.809Z,8.08
2018-04-10T16:46:01.082Z,8.08
2018-04-10T16:49:04.418Z,8.07
2018-04-10T16:52:07.753Z,8.03
2018-04-10T16:55:11.073Z,8.00
2018-04-10T16:58:14.389Z,8.00
2018-04-10T17:01:17.684Z,7.97
2018-04-10T17:04:20.997Z,7.97
2018-04-10T17:07:24.297Z,7.94
2018-04-10T17:10:27.609Z,7.96
2018-04-10T17:13:32.641Z,7.96
2018-04-10T17:16:36.863Z,7.94
2018-04-10T17:19:41.174Z,7.85
2018-04-10T17:22:44.483Z,7.79
2018-04-10T17:25:47.809Z,7.81
2018-04-10T17:28:51.169Z,7.78
2018-04-10T17:31:56.115Z,7.79
2018-04-10T17:35:00.185Z,7.76
2018-04-10T17:38:03.505Z,7.70
2018-04-10T17:41:06.837Z,7.66
2018-04-10T17:44:10.149Z,7.65
2018-04-10T17:47:13.481Z,7.57
2018-04-10T17:50:16.808Z,7.48
2018-04-10T17:53:20.892Z,7.46
2018-04-10T17:56:24.196Z,7.46
2018-04-10T17:59:27.530Z,7.45
2018-04-10T18:02:30.832Z,7.39
2018-04-10T18:05:34.148Z,7.35
2018-04-10T18:08:37.455Z,7.35
2018-04-10T18:11:40.777Z,7.31
2018-04-10T18:14:44.076Z,7.27
2018-04-10T18:17:47.392Z,7.24
2018-04-10T18:20:50.719Z,7.21
2018-04-10T18:23:54.028Z,7.14
2018-04-10T18:26:57.348Z,7.12
2018-04-10T18:30:00.689Z,7.10
2018-04-10T18:33:04.777Z,7.09
2018-04-10T18:36:08.134Z,7.05
2018-04-10T18:39:12.181Z,7.03
2018-04-10T18:42:15.484Z,6.98
2018-04-10T18:45:18.800Z,6.97
2018-04-10T18:48:22.164Z,6.97
2018-04-10T18:51:25.464Z,6.97
2018-04-10T18:54:28.797Z,6.96
2018-04-10T18:57:32.100Z,6.92
2018-04-10T19:00:35.416Z,6.87
2018-04-10T19:03:38.720Z,6.84
2018-04-10T19:06:42.045Z,6.80
2018-04-10T19:09:45.352Z,6.80
2018-04-10T19:12:48.680Z,6.75
2018-04-10T19:15:52.017Z,6.74
2018-04-10T19:18:55.320Z,6.73
2018-04-10T19:21:58.657Z,6.69
2018-04-10T19:25:02.729Z,6.72
2018-04-10T19:28:06.058Z,6.71
2018-04-10T19:31:10.137Z,6.66
2018-04-10T19:34:13.473Z,6.62
2018-04-10T19:37:17.563Z,6.63
2018-04-10T19:40:20.894Z,6.61
2018-04-10T19:43:24.229Z,6.60
2018-04-10T19:46:27.545Z,6.57
2018-04-10T19:49:30.865Z,6.60
2018-04-10T19:52:34.192Z,6.61
2018-04-10T19:55:37.533Z,6.55
2018-04-10T19:58:40.833Z,6.55
2018-04-10T20:01:44.156Z,6.52
2018-04-10T20:04:48.296Z,6.50
2018-04-10T20:07:51.568Z,6.46
2018-04-10T20:10:54.900Z,6.43
2018-04-10T20:13:58.210Z,6.42
2018-04-10T20:17:01.548Z,6.37
2018-04-10T20:20:04.853Z,6.40
2018-04-10T20:23:08.210Z,6.43
2018-04-10T20:26:11.521Z,6.38
2018-04-10T20:29:14.841Z,6.38
2018-04-10T20:32:18.953Z,6.39
2018-04-10T20:35:22.289Z,6.34
2018-04-10T20:38:25.585Z,6.32
2018-04-10T20:41:28.904Z,6.29
2018-04-10T20:44:32.217Z,6.29
2018-04-10T20:47:35.534Z,6.23
2018-04-10T20:50:38.868Z,6.19
2018-04-10T20:53:42.176Z,6.22
2018-04-10T20:56:45.505Z,6.23
2018-04-10T20:59:48.824Z,6.17
2018-04-10T21:02:52.153Z,6.18
2018-04-10T21:05:55.469Z,6.16
2018-04-10T21:08:58.808Z,6.18
2018-04-10T21:12:02.117Z,6.15
2018-04-10T21:15:05.473Z,6.14
2018-04-10T21:18:08.805Z,6.13
2018-04-10T21:21:12.126Z,6.12
2018-04-10T21:24:16.235Z,6.08
2018-04-10T21:27:20.333Z,6.05
2018-04-10T21:30:23.710Z,6.11
2018-04-10T21:33:27.005Z,6.05
2018-04-10T21:36:30.329Z,6.03
2018-04-10T21:39:33.645Z,6.00
2018-04-10T21:42:42.456Z,6.00
2018-04-10T21:45:46.545Z,6.02
2018-04-10T21:48:49.881Z,6.02
2018-04-10T21:51:53.199Z,5.98
2018-04-10T21:54:56.545Z,5.94
2018-04-10T21:57:59.919Z,5.95
2018-04-10T22:01:03.225Z,5.93
2018-04-10T22:04:06.555Z,5.91
2018-04-10T22:07:10.691Z,5.91
2018-04-10T22:10:14.017Z,5.92
2018-04-10T22:13:18.861Z,5.87
2018-04-10T22:16:22.221Z,5.91
2018-04-10T22:19:25.554Z,5.88
2018-04-10T22:22:28.899Z,5.89
2018-04-10T22:25:32.209Z,5.91
2018-04-10T22:28:35.545Z,5.91
2018-04-10T22:31:38.905Z,5.86
2018-04-10T22:34:42.203Z,5.84
2018-04-10T22:37:45.529Z,5.80
2018-04-10T22:40:48.853Z,5.80
2018-04-10T22:43:52.181Z,5.87
2018-04-10T22:46:55.501Z,5.82
2018-04-10T22:49:58.867Z,5.83
2018-04-10T22:53:02.172Z,5.81
2018-04-10T22:56:05.521Z,5.80
2018-04-10T22:59:09.585Z,5.76
2018-04-10T23:02:12.912Z,5.76
2018-04-10T23:05:16.236Z,5.77
2018-04-10T23:08:19.577Z,5.79
2018-04-10T23:11:22.893Z,5.74
2018-04-10T23:14:26.234Z,5.74
2018-04-10T23:17:29.542Z,5.73
2018-04-10T23:20:33.652Z,5.75
2018-04-10T23:23:36.981Z,5.72
2018-04-10T23:26:40.321Z,5.72
2018-04-10T23:29:43.625Z,5.71
2018-04-10T23:32:46.969Z,5.72
2018-04-10T23:35:50.297Z,5.77
2018-04-10T23:38:53.622Z,5.73
2018-04-10T23:41:56.957Z,5.73
2018-04-10T23:45:01.065Z,5.75
2018-04-10T23:48:04.378Z,5.74
2018-04-10T23:51:07.707Z,5.73
2018-04-10T23:54:11.056Z,5.75
2018-04-10T23:57:14.376Z,5.74
